createdAt,value
2018-03-22T00:00:54.575Z,79.39
2018-03-22T00:01:54.567Z,79.02
2018-03-22T00:02:54.560Z,79.02
2018-03-22T00:03:54.548Z,79.11
2018-03-22T00:04:54.542Z,78.92
2018-03-22T00:05:54.531Z,78.73
2018-03-22T00:06:54.524Z,79.39
2018-03-22T00:07:54.515Z,79.11
2018-03-22T00:08:54.508Z,79.39
2018-03-22T00:09:54.504Z,79.02
2018-03-22T00:10:54.491Z,79.02
2018-03-22T00:11:54.484Z,78.92
2018-03-22T00:12:54.474Z,78.83
2018-03-22T00:13:54.467Z,79.11
2018-03-22T00:14:54.458Z,79.11
2018-03-22T00:15:54.450Z,78.73
2018-03-22T00:16:54.442Z,79.11
2018-03-22T00:17:54.434Z,79.11
2018-03-22T00:18:54.427Z,79.02
2018-03-22T00:19:54.417Z,79.21
2018-03-22T00:20:54.409Z,79.11
2018-03-22T00:21:54.403Z,78.92
2018-03-22T00:22:54.394Z,79.39
2018-03-22T00:23:54.384Z,79.30
2018-03-22T00:24:54.375Z,79.21
2018-03-22T00:25:54.381Z,79.58
2018-03-22T00:26:54.362Z,79.11
2018-03-22T00:27:54.351Z,79.11
2018-03-22T00:28:54.348Z,79.11
2018-03-22T00:29:54.349Z,78.92
2018-03-22T00:30:54.328Z,79.68
2018-03-22T00:31:54.320Z,79.11
2018-03-22T00:32:54.352Z,79.21
2018-03-22T00:33:54.307Z,79.02
2018-03-22T00:34:54.299Z,79.30
2018-03-22T00:35:54.287Z,79.39
2018-03-22T00:36:54.277Z,79.21
2018-03-22T00:37:54.268Z,79.39
2018-03-22T00:38:54.258Z,79.49
2018-03-22T00:39:54.256Z,79.30
2018-03-22T00:40:54.257Z,79.39
2018-03-22T00:41:54.239Z,78.92
2018-03-22T00:42:54.230Z,79.58
2018-03-22T00:43:54.221Z,79.11
2018-03-22T00:44:54.214Z,79.30
2018-03-22T00:45:54.213Z,79.39
2018-03-22T00:46:54.235Z,79.39
2018-03-22T00:47:54.187Z,79.21
2018-03-22T00:48:54.176Z,79.39
2018-03-22T00:49:54.174Z,79.30
2018-03-22T00:50:54.175Z,79.02
2018-03-22T00:51:54.155Z,79.49
2018-03-22T00:52:54.144Z,79.58
2018-03-22T00:53:54.142Z,79.58
2018-03-22T00:54:54.132Z,79.49
2018-03-22T00:55:54.130Z,79.39
2018-03-22T00:56:54.119Z,78.92
2018-03-22T00:57:54.107Z,79.02
2018-03-22T00:58:54.105Z,79.68
2018-03-22T00:59:54.095Z,79.11
2018-03-22T01:00:54.080Z,78.92
2018-03-22T01:01:54.083Z,79.39
2018-03-22T01:02:54.070Z,79.02
2018-03-22T01:03:54.058Z,79.11
2018-03-22T01:04:54.064Z,79.21
2018-03-22T01:05:54.061Z,79.21
2018-03-22T01:06:54.033Z,79.30
2018-03-22T01:07:54.023Z,78.83
2018-03-22T01:08:54.019Z,79.30
2018-03-22T01:09:54.010Z,79.30
2018-03-22T01:10:54.010Z,79.02
2018-03-22T01:11:53.995Z,79.30
2018-03-22T01:12:54.010Z,79.11
2018-03-22T01:13:53.979Z,79.39
2018-03-22T01:14:53.979Z,79.11
2018-03-22T01:15:53.959Z,79.49
2018-03-22T01:16:53.955Z,79.21
2018-03-22T01:17:53.947Z,79.30
2018-03-22T01:18:53.945Z,78.83
2018-03-22T01:19:53.928Z,79.96
2018-03-22T01:20:53.932Z,79.49
2018-03-22T01:21:53.918Z,78.83
2018-03-22T01:22:53.902Z,79.30
2018-03-22T01:23:53.897Z,79.68
2018-03-22T01:24:53.887Z,79.39
2018-03-22T01:25:53.888Z,79.87
2018-03-22T01:26:53.880Z,79.11
2018-03-22T01:27:53.860Z,79.21
2018-03-22T01:28:53.853Z,79.11
2018-03-22T01:29:53.855Z,79.21
2018-03-22T01:30:53.838Z,79.02
2018-03-22T01:31:53.852Z,79.39
2018-03-22T01:32:53.840Z,79.11
2018-03-22T01:33:53.812Z,79.02
2018-03-22T01:34:53.816Z,79.30
2018-03-22T01:35:53.795Z,79.77
2018-03-22T01:36:53.797Z,79.58
2018-03-22T01:37:53.780Z,79.87
2018-03-22T01:38:53.774Z,79.02
2018-03-22T01:39:53.774Z,79.68
2018-03-22T01:40:53.755Z,79.68
2018-03-22T01:41:53.747Z,79.68
2018-03-22T01:42:53.742Z,78.92
2018-03-22T01:43:53.735Z,79.58
2018-03-22T01:44:53.723Z,79.58
2018-03-22T01:45:53.724Z,79.49
2018-03-22T01:46:53.716Z,80.15
2018-03-22T01:47:53.700Z,79.49
2018-03-22T01:48:53.701Z,79.58
2018-03-22T01:49:53.682Z,79.49
2018-03-22T01:50:53.671Z,80.06
2018-03-22T01:51:53.665Z,80.06
2018-03-22T01:52:53.661Z,79.77
2018-03-22T01:53:53.648Z,79.77
2018-03-22T01:54:53.645Z,79.49
2018-03-22T01:55:53.633Z,80.06
2018-03-22T01:56:53.635Z,79.68
2018-03-22T01:57:53.613Z,79.49
2018-03-22T01:58:53.607Z,79.49
2018-03-22T01:59:53.598Z,79.49
2018-03-22T02:00:53.591Z,80.06
2018-03-22T02:01:53.644Z,80.15
2018-03-22T02:02:53.569Z,79.55
2018-03-22T02:03:53.573Z,79.55
2018-03-22T02:04:53.550Z,79.74
2018-03-22T02:05:53.548Z,79.64
2018-03-22T02:06:53.539Z,79.55
2018-03-22T02:07:53.528Z,80.11
2018-03-22T02:08:53.524Z,79.93
2018-03-22T02:09:53.515Z,80.11
2018-03-22T02:10:53.511Z,79.64
2018-03-22T02:11:53.497Z,79.93
2018-03-22T02:12:53.510Z,79.36
2018-03-22T02:13:53.478Z,79.64
2018-03-22T02:14:53.475Z,79.74
2018-03-22T02:15:53.466Z,79.93
2018-03-22T02:16:53.456Z,79.36
2018-03-22T02:17:53.452Z,80.11
2018-03-22T02:18:53.436Z,79.64
2018-03-22T02:19:53.436Z,79.83
2018-03-22T02:20:53.420Z,79.83
2018-03-22T02:21:53.414Z,80.21
2018-03-22T02:22:53.407Z,80.02
2018-03-22T02:23:53.403Z,79.64
2018-03-22T02:24:53.388Z,80.21
2018-03-22T02:25:53.383Z,80.02
2018-03-22T02:26:53.373Z,79.74
2018-03-22T02:27:53.362Z,79.83
2018-03-22T02:28:53.357Z,79.83
2018-03-22T02:29:53.347Z,80.11
2018-03-22T02:30:53.342Z,80.11
2018-03-22T02:31:53.338Z,80.11
2018-03-22T02:32:53.321Z,80.02
2018-03-22T02:33:53.315Z,79.93
2018-03-22T02:34:53.316Z,80.11
2018-03-22T02:35:53.298Z,79.83
2018-03-22T02:36:53.289Z,80.11
2018-03-22T02:37:53.310Z,80.11
2018-03-22T02:38:53.272Z,79.64
2018-03-22T02:39:53.263Z,80.11
2018-03-22T02:40:53.258Z,79.93
2018-03-22T02:41:53.260Z,79.93
2018-03-22T02:42:53.295Z,79.83
2018-03-22T02:43:53.231Z,79.93
2018-03-22T02:44:53.221Z,80.21
2018-03-22T02:45:53.217Z,79.93
2018-03-22T02:46:53.207Z,80.11
2018-03-22T02:47:53.195Z,79.74
2018-03-22T02:48:53.187Z,80.11
2018-03-22T02:49:53.175Z,79.93
2018-03-22T02:50:53.172Z,80.11
2018-03-22T02:51:53.171Z,79.83
2018-03-22T02:52:53.168Z,80.11
2018-03-22T02:53:53.143Z,79.93
2018-03-22T02:54:53.138Z,79.93
2018-03-22T02:55:53.128Z,80.11
2018-03-22T02:56:53.118Z,79.83
2018-03-22T02:57:53.111Z,80.02
2018-03-22T02:58:53.103Z,80.11
2018-03-22T02:59:53.093Z,80.11
2018-03-22T03:00:53.085Z,79.96
2018-03-22T03:01:53.075Z,80.06
2018-03-22T03:02:53.068Z,80.11
2018-03-22T03:03:53.062Z,79.64
2018-03-22T03:04:53.053Z,80.11
2018-03-22T03:05:53.045Z,80.11
2018-03-22T03:06:53.035Z,80.11
2018-03-22T03:07:53.026Z,80.11
2018-03-22T03:08:53.017Z,79.96
2018-03-22T03:09:53.009Z,79.87
2018-03-22T03:10:53.005Z,79.93
2018-03-22T03:11:52.996Z,79.93
2018-03-22T03:12:52.981Z,79.93
2018-03-22T03:13:52.975Z,80.11
2018-03-22T03:14:52.967Z,80.21
2018-03-22T03:15:52.957Z,79.83
2018-03-22T03:16:52.947Z,80.02
2018-03-22T03:17:52.941Z,80.02
2018-03-22T03:18:52.934Z,79.83
2018-03-22T03:19:52.923Z,80.06
2018-03-22T03:20:52.916Z,80.15
2018-03-22T03:21:52.907Z,80.06
2018-03-22T03:22:52.898Z,79.96
2018-03-22T03:23:52.891Z,80.02
2018-03-22T03:24:52.881Z,79.96
2018-03-22T03:25:52.872Z,80.34
2018-03-22T03:26:52.867Z,80.25
2018-03-22T03:27:52.854Z,80.15
2018-03-22T03:28:52.846Z,80.53
2018-03-22T03:29:52.838Z,80.15
2018-03-22T03:30:52.831Z,80.02
2018-03-22T03:31:52.821Z,80.06
2018-03-22T03:32:52.816Z,80.06
2018-03-22T03:33:52.804Z,80.44
2018-03-22T03:34:52.796Z,80.25
2018-03-22T03:35:52.788Z,79.87
2018-03-22T03:36:52.779Z,80.15
2018-03-22T03:37:52.772Z,80.06
2018-03-22T03:38:52.762Z,80.06
2018-03-22T03:39:52.754Z,80.53
2018-03-22T03:40:52.745Z,80.34
2018-03-22T03:41:52.737Z,80.53
2018-03-22T03:42:52.732Z,79.96
2018-03-22T03:43:52.719Z,80.06
2018-03-22T03:44:52.713Z,80.02
2018-03-22T03:45:52.699Z,80.15
2018-03-22T03:46:52.697Z,79.68
2018-03-22T03:47:52.692Z,80.06
2018-03-22T03:48:52.677Z,80.06
2018-03-22T03:49:52.669Z,80.53
2018-03-22T03:50:52.658Z,80.25
2018-03-22T03:51:52.653Z,80.44
2018-03-22T03:52:52.644Z,80.63
2018-03-22T03:53:52.638Z,80.63
2018-03-22T03:54:52.626Z,80.63
2018-03-22T03:55:52.617Z,80.72
2018-03-22T03:56:52.610Z,80.15
2018-03-22T03:57:52.600Z,80.53
2018-03-22T03:58:52.594Z,80.53
2018-03-22T03:59:52.583Z,80.63
2018-03-22T04:00:52.575Z,80.34
2018-03-22T04:01:52.564Z,80.49
2018-03-22T04:02:52.562Z,79.87
2018-03-22T04:03:52.549Z,80.34
2018-03-22T04:04:52.541Z,80.25
2018-03-22T04:05:52.536Z,80.63
2018-03-22T04:06:52.523Z,79.77
2018-03-22T04:07:52.515Z,80.15
2018-03-22T04:08:52.510Z,80.02
2018-03-22T04:09:52.505Z,80.34
2018-03-22T04:10:52.487Z,80.40
2018-03-22T04:11:52.482Z,80.34
2018-03-22T04:12:52.473Z,80.53
2018-03-22T04:13:52.468Z,80.40
2018-03-22T04:14:52.462Z,80.34
2018-03-22T04:15:52.446Z,80.53
2018-03-22T04:16:52.439Z,80.06
2018-03-22T04:17:52.430Z,80.53
2018-03-22T04:18:52.428Z,80.53
2018-03-22T04:19:52.412Z,80.34
2018-03-22T04:20:52.405Z,80.82
2018-03-22T04:21:52.396Z,80.68
2018-03-22T04:22:52.387Z,80.21
2018-03-22T04:23:52.377Z,80.63
2018-03-22T04:24:52.373Z,80.44
2018-03-22T04:25:52.364Z,80.15
2018-03-22T04:26:52.389Z,80.34
2018-03-22T04:27:52.342Z,80.49
2018-03-22T04:28:52.336Z,80.63
2018-03-22T04:29:52.328Z,80.21
2018-03-22T04:30:52.320Z,80.49
2018-03-22T04:31:52.311Z,80.72
2018-03-22T04:32:52.301Z,80.49
2018-03-22T04:33:52.295Z,80.21
2018-03-22T04:34:52.283Z,80.68
2018-03-22T04:35:52.276Z,80.49
2018-03-22T04:36:52.268Z,80.49
2018-03-22T04:37:52.259Z,80.30
2018-03-22T04:38:52.255Z,80.91
2018-03-22T04:39:52.242Z,80.30
2018-03-22T04:40:52.233Z,80.30
2018-03-22T04:41:52.224Z,80.58
2018-03-22T04:42:52.217Z,80.58
2018-03-22T04:43:52.210Z,80.30
2018-03-22T04:44:52.200Z,80.77
2018-03-22T04:45:52.192Z,80.30
2018-03-22T04:46:52.183Z,80.30
2018-03-22T04:47:52.176Z,80.58
2018-03-22T04:48:52.167Z,79.74
2018-03-22T04:49:52.157Z,80.40
2018-03-22T04:50:52.149Z,80.49
2018-03-22T04:51:52.139Z,80.68
2018-03-22T04:52:52.131Z,80.49
2018-03-22T04:53:52.125Z,80.40
2018-03-22T04:54:52.115Z,80.40
2018-03-22T04:55:52.104Z,80.40
2018-03-22T04:56:52.096Z,80.68
2018-03-22T04:57:52.094Z,80.72
2018-03-22T04:58:52.080Z,80.49
2018-03-22T04:59:52.070Z,80.30
2018-03-22T05:00:52.064Z,80.40
2018-03-22T05:01:52.059Z,80.58
2018-03-22T05:02:52.054Z,80.30
2018-03-22T05:03:52.035Z,80.40
2018-03-22T05:04:52.033Z,80.49
2018-03-22T05:05:52.017Z,80.72
2018-03-22T05:06:52.036Z,80.63
2018-03-22T05:07:52.006Z,80.58
2018-03-22T05:08:51.992Z,80.49
2018-03-22T05:09:51.987Z,80.40
2018-03-22T05:10:51.971Z,80.40
2018-03-22T05:11:51.966Z,80.58
2018-03-22T05:12:51.958Z,80.40
2018-03-22T05:13:51.950Z,80.49
2018-03-22T05:14:51.942Z,80.30
2018-03-22T05:15:51.932Z,80.49
2018-03-22T05:16:51.925Z,80.82
2018-03-22T05:17:51.914Z,80.53
2018-03-22T05:18:51.908Z,80.53
2018-03-22T05:19:51.898Z,80.72
2018-03-22T05:20:51.890Z,80.34
2018-03-22T05:21:51.881Z,80.72
2018-03-22T05:22:51.875Z,80.63
2018-03-22T05:23:51.862Z,80.53
2018-03-22T05:24:51.855Z,80.34
2018-03-22T05:25:51.848Z,80.53
2018-03-22T05:26:51.839Z,80.53
2018-03-22T05:27:51.829Z,80.25
2018-03-22T05:28:51.824Z,80.49
2018-03-22T05:29:51.813Z,80.53
2018-03-22T05:30:51.805Z,80.44
2018-03-22T05:31:51.795Z,80.72
2018-03-22T05:32:51.785Z,80.53
2018-03-22T05:33:51.778Z,80.15
2018-03-22T05:34:51.770Z,80.34
2018-03-22T05:35:51.764Z,80.53
2018-03-22T05:36:51.752Z,80.82
2018-03-22T05:37:51.741Z,80.53
2018-03-22T05:38:51.736Z,80.72
2018-03-22T05:39:51.754Z,80.34
2018-03-22T05:40:51.724Z,80.72
2018-03-22T05:41:51.711Z,80.63
2018-03-22T05:42:51.701Z,80.53
2018-03-22T05:43:51.691Z,80.72
2018-03-22T05:44:51.682Z,80.53
2018-03-22T05:45:51.673Z,80.72
2018-03-22T05:46:51.666Z,80.34
2018-03-22T05:47:51.659Z,80.44
2018-03-22T05:48:51.648Z,80.53
2018-03-22T05:49:51.642Z,80.25
2018-03-22T05:50:51.632Z,80.25
2018-03-22T05:51:51.643Z,79.77
2018-03-22T05:52:51.614Z,79.68
2018-03-22T05:53:51.607Z,79.96
2018-03-22T05:54:51.599Z,80.34
2018-03-22T05:55:51.588Z,80.82
2018-03-22T05:56:51.583Z,80.15
2018-03-22T05:57:51.581Z,80.25
2018-03-22T05:58:51.563Z,79.87
2018-03-22T05:59:51.555Z,79.30
2018-03-22T06:00:51.546Z,79.77
2018-03-22T06:01:51.538Z,79.30
2018-03-22T06:02:51.528Z,79.39
2018-03-22T06:03:51.519Z,79.58
2018-03-22T06:04:51.510Z,79.77
2018-03-22T06:05:51.503Z,79.74
2018-03-22T06:06:51.496Z,78.41
2018-03-22T06:07:51.487Z,79.17
2018-03-22T06:08:51.486Z,77.94
2018-03-22T06:09:51.470Z,79.45
2018-03-22T06:10:51.461Z,78.50
2018-03-22T06:11:51.455Z,78.79
2018-03-22T06:12:51.448Z,78.98
2018-03-22T06:13:51.436Z,78.88
2018-03-22T06:14:51.426Z,78.98
2018-03-22T06:15:51.417Z,79.17
2018-03-22T06:16:51.414Z,78.69
2018-03-22T06:17:51.396Z,78.59
2018-03-22T06:18:51.393Z,78.59
2018-03-22T06:19:51.383Z,78.88
2018-03-22T06:20:51.377Z,79.36
2018-03-22T06:21:51.367Z,79.07
2018-03-22T06:22:51.359Z,78.98
2018-03-22T06:23:51.347Z,79.26
2018-03-22T06:24:51.339Z,79.55
2018-03-22T06:25:51.331Z,79.36
2018-03-22T06:26:51.328Z,79.55
2018-03-22T06:27:51.313Z,79.93
2018-03-22T06:28:51.303Z,79.39
2018-03-22T06:29:51.297Z,79.58
2018-03-22T06:30:51.287Z,80.15
2018-03-22T06:31:51.279Z,79.55
2018-03-22T06:32:51.290Z,79.17
2018-03-22T06:33:51.264Z,79.30
2018-03-22T06:34:51.253Z,79.74
2018-03-22T06:35:51.242Z,79.45
2018-03-22T06:36:51.236Z,80.02
2018-03-22T06:37:51.229Z,79.45
2018-03-22T06:38:51.221Z,78.69
2018-03-22T06:39:51.210Z,79.26
2018-03-22T06:40:51.203Z,79.55
2018-03-22T06:41:51.194Z,77.27
2018-03-22T06:42:51.184Z,78.22
2018-03-22T06:43:51.182Z,77.94
2018-03-22T06:44:51.166Z,78.79
2018-03-22T06:45:51.158Z,77.84
2018-03-22T06:46:51.151Z,79.26
2018-03-22T06:47:51.142Z,79.36
2018-03-22T06:48:51.142Z,78.79
2018-03-22T06:49:51.125Z,77.84
2018-03-22T06:50:51.117Z,77.56
2018-03-22T06:51:51.109Z,77.84
2018-03-22T06:52:51.098Z,77.94
2018-03-22T06:53:51.095Z,77.56
2018-03-22T06:54:51.087Z,78.59
2018-03-22T06:55:51.072Z,77.94
2018-03-22T06:56:51.064Z,77.94
2018-03-22T06:57:51.056Z,77.75
2018-03-22T06:58:51.050Z,78.13
2018-03-22T06:59:51.040Z,77.51
2018-03-22T07:00:51.029Z,77.84
2018-03-22T07:01:51.021Z,77.51
2018-03-22T07:02:51.013Z,77.51
2018-03-22T07:03:51.004Z,77.51
2018-03-22T07:04:50.992Z,77.14
2018-03-22T07:05:50.992Z,77.42
2018-03-22T07:06:51.011Z,77.14
2018-03-22T07:07:50.975Z,77.14
2018-03-22T07:08:50.970Z,76.95
2018-03-22T07:09:50.951Z,76.86
2018-03-22T07:10:50.944Z,77.14
2018-03-22T07:11:50.933Z,77.04
2018-03-22T07:12:50.924Z,77.14
2018-03-22T07:13:50.915Z,77.04
2018-03-22T07:14:50.911Z,77.23
2018-03-22T07:15:50.897Z,77.04
2018-03-22T07:16:50.889Z,77.33
2018-03-22T07:17:50.894Z,76.95
2018-03-22T07:18:50.870Z,76.86
2018-03-22T07:19:50.911Z,76.86
2018-03-22T07:20:50.854Z,76.86
2018-03-22T07:21:50.845Z,77.14
2018-03-22T07:22:50.839Z,77.04
2018-03-22T07:23:50.824Z,76.86
2018-03-22T07:24:50.816Z,77.33
2018-03-22T07:25:50.809Z,76.95
2018-03-22T07:26:50.800Z,77.04
2018-03-22T07:27:50.790Z,76.76
2018-03-22T07:28:50.793Z,76.86
2018-03-22T07:29:50.771Z,76.67
2018-03-22T07:30:50.765Z,77.04
2018-03-22T07:31:50.754Z,77.04
2018-03-22T07:32:50.757Z,76.86
2018-03-22T07:33:50.736Z,76.48
2018-03-22T07:34:50.730Z,76.86
2018-03-22T07:35:50.720Z,77.23
2018-03-22T07:36:50.732Z,77.14
2018-03-22T07:37:50.706Z,76.95
2018-03-22T07:38:50.704Z,77.33
2018-03-22T07:39:50.682Z,77.33
2018-03-22T07:40:50.677Z,76.76
2018-03-22T07:41:50.663Z,76.57
2018-03-22T07:42:50.662Z,76.86
2018-03-22T07:43:50.698Z,76.86
2018-03-22T07:44:50.641Z,77.04
2018-03-22T07:45:50.630Z,77.14
2018-03-22T07:46:50.620Z,77.23
2018-03-22T07:47:50.610Z,76.76
2018-03-22T07:48:50.600Z,77.14
2018-03-22T07:49:50.590Z,77.14
2018-03-22T07:50:50.582Z,76.95
2018-03-22T07:51:50.572Z,77.14
2018-03-22T07:52:50.563Z,76.48
2018-03-22T07:53:50.557Z,76.67
2018-03-22T07:54:50.547Z,77.51
2018-03-22T07:55:50.544Z,77.33
2018-03-22T07:56:50.527Z,76.86
2018-03-22T07:57:50.518Z,76.86
2018-03-22T07:58:50.509Z,76.76
2018-03-22T07:59:50.501Z,76.67
2018-03-22T08:00:50.492Z,76.95
2018-03-22T08:01:50.484Z,76.76
2018-03-22T08:02:50.477Z,76.86
2018-03-22T08:03:50.462Z,76.67
2018-03-22T08:04:50.454Z,76.95
2018-03-22T08:05:50.469Z,76.57
2018-03-22T08:06:50.436Z,77.14
2018-03-22T08:07:50.427Z,77.04
2018-03-22T08:08:50.424Z,76.57
2018-03-22T08:09:50.410Z,77.04
2018-03-22T08:10:50.399Z,76.76
2018-03-22T08:11:50.390Z,76.76
2018-03-22T08:12:50.384Z,77.61
2018-03-22T08:13:50.372Z,77.04
2018-03-22T08:14:50.363Z,76.76
2018-03-22T08:15:50.353Z,76.80
2018-03-22T08:16:50.346Z,76.80
2018-03-22T08:17:50.342Z,76.89
2018-03-22T08:18:50.327Z,76.99
2018-03-22T08:19:50.317Z,77.08
2018-03-22T08:20:50.307Z,77.46
2018-03-22T08:21:50.300Z,76.80
2018-03-22T08:22:50.292Z,76.80
2018-03-22T08:23:50.281Z,76.70
2018-03-22T08:24:50.273Z,76.99
2018-03-22T08:25:50.267Z,76.99
2018-03-22T08:26:50.259Z,77.27
2018-03-22T08:27:50.252Z,76.89
2018-03-22T08:28:50.236Z,76.99
2018-03-22T08:29:50.228Z,76.80
2018-03-22T08:30:50.243Z,77.27
2018-03-22T08:31:50.209Z,76.99
2018-03-22T08:32:50.217Z,76.80
2018-03-22T08:33:50.190Z,76.80
2018-03-22T08:34:50.192Z,76.80
2018-03-22T08:35:50.177Z,77.08
2018-03-22T08:36:50.166Z,76.99
2018-03-22T08:37:50.159Z,77.08
2018-03-22T08:38:50.148Z,76.70
2018-03-22T08:39:50.142Z,76.99
2018-03-22T08:40:50.130Z,76.80
2018-03-22T08:41:50.121Z,76.89
2018-03-22T08:42:50.114Z,77.08
2018-03-22T08:43:50.103Z,76.89
2018-03-22T08:44:50.097Z,76.99
2018-03-22T08:45:50.091Z,76.80
2018-03-22T08:46:50.082Z,76.99
2018-03-22T08:47:50.069Z,76.99
2018-03-22T08:48:50.063Z,77.56
2018-03-22T08:49:50.052Z,76.89
2018-03-22T08:50:50.045Z,76.51
2018-03-22T08:51:50.061Z,76.70
2018-03-22T08:52:50.025Z,76.70
2018-03-22T08:53:50.017Z,76.61
2018-03-22T08:54:50.038Z,76.42
2018-03-22T08:55:50.002Z,76.61
2018-03-22T08:56:49.994Z,76.23
2018-03-22T08:57:49.981Z,77.08
2018-03-22T08:58:49.975Z,76.80
2018-03-22T08:59:49.968Z,76.89
2018-03-22T09:00:49.954Z,76.80
2018-03-22T09:01:49.947Z,76.80
2018-03-22T09:02:49.936Z,76.80
2018-03-22T09:03:49.936Z,77.18
2018-03-22T09:04:49.920Z,77.18
2018-03-22T09:05:49.912Z,76.80
2018-03-22T09:06:49.917Z,76.70
2018-03-22T09:07:49.894Z,76.70
2018-03-22T09:08:49.890Z,76.89
2018-03-22T09:09:49.954Z,76.99
2018-03-22T09:10:49.920Z,76.99
2018-03-22T09:11:49.858Z,76.61
2018-03-22T09:12:49.849Z,76.89
2018-03-22T09:13:49.843Z,76.80
2018-03-22T09:14:49.833Z,76.89
2018-03-22T09:15:49.823Z,76.42
2018-03-22T09:16:49.815Z,76.89
2018-03-22T09:17:49.808Z,76.80
2018-03-22T09:18:49.795Z,77.08
2018-03-22T09:19:49.794Z,77.08
2018-03-22T09:20:49.783Z,76.51
2018-03-22T09:21:49.769Z,76.70
2018-03-22T09:22:49.762Z,76.14
2018-03-22T09:23:49.754Z,76.80
2018-03-22T09:24:49.747Z,76.70
2018-03-22T09:25:49.739Z,76.99
2018-03-22T09:26:49.729Z,76.70
2018-03-22T09:27:49.758Z,76.89
2018-03-22T09:28:49.711Z,76.70
2018-03-22T09:29:49.702Z,76.89
2018-03-22T09:30:49.694Z,76.80
2018-03-22T09:31:49.686Z,76.23
2018-03-22T09:32:49.678Z,76.99
2018-03-22T09:33:49.668Z,76.70
2018-03-22T09:34:49.699Z,76.70
2018-03-22T09:35:49.647Z,76.99
2018-03-22T09:36:49.642Z,76.80
2018-03-22T09:37:49.633Z,76.61
2018-03-22T09:38:49.624Z,76.80
2018-03-22T09:39:49.614Z,76.70
2018-03-22T09:40:49.606Z,76.80
2018-03-22T09:41:49.639Z,76.80
2018-03-22T09:42:49.589Z,76.51
2018-03-22T09:43:49.581Z,76.80
2018-03-22T09:44:49.574Z,76.80
2018-03-22T09:45:49.562Z,76.99
2018-03-22T09:46:49.828Z,76.99
2018-03-22T09:47:49.545Z,76.80
2018-03-22T09:48:49.539Z,76.70
2018-03-22T09:49:49.527Z,76.61
2018-03-22T09:50:49.519Z,76.89
2018-03-22T09:51:49.509Z,76.89
2018-03-22T09:52:49.508Z,76.80
2018-03-22T09:53:49.493Z,76.61
2018-03-22T09:54:49.483Z,76.70
2018-03-22T09:55:49.472Z,76.61
2018-03-22T09:56:49.473Z,76.61
2018-03-22T09:57:49.458Z,76.70
2018-03-22T09:58:49.450Z,76.42
2018-03-22T09:59:49.440Z,76.61
2018-03-22T10:00:49.432Z,76.14
2018-03-22T10:01:49.424Z,76.80
2018-03-22T10:02:49.459Z,76.89
2018-03-22T10:03:49.409Z,76.80
2018-03-22T10:04:49.396Z,76.70
2018-03-22T10:05:49.389Z,76.32
2018-03-22T10:06:49.378Z,76.61
2018-03-22T10:07:49.381Z,76.51
2018-03-22T10:08:49.364Z,76.61
2018-03-22T10:09:49.361Z,76.80
2018-03-22T10:10:49.345Z,76.99
2018-03-22T10:11:49.336Z,76.42
2018-03-22T10:12:49.335Z,76.70
2018-03-22T10:13:49.319Z,76.23
2018-03-22T10:14:49.311Z,76.14
2018-03-22T10:15:49.303Z,76.51
2018-03-22T10:16:49.293Z,76.42
2018-03-22T10:17:49.285Z,76.80
2018-03-22T10:18:49.276Z,76.80
2018-03-22T10:19:49.266Z,76.32
2018-03-22T10:20:49.260Z,76.23
2018-03-22T10:21:49.248Z,76.80
2018-03-22T10:22:49.242Z,76.08
2018-03-22T10:23:49.231Z,76.61
2018-03-22T10:24:49.224Z,76.80
2018-03-22T10:25:49.215Z,76.80
2018-03-22T10:26:49.209Z,76.14
2018-03-22T10:27:49.205Z,75.95
2018-03-22T10:28:49.194Z,75.85
2018-03-22T10:29:49.182Z,76.42
2018-03-22T10:30:49.174Z,76.80
2018-03-22T10:31:49.165Z,76.80
2018-03-22T10:32:49.158Z,76.23
2018-03-22T10:33:49.148Z,76.70
2018-03-22T10:34:49.147Z,76.70
2018-03-22T10:35:49.132Z,76.51
2018-03-22T10:36:49.136Z,76.42
2018-03-22T10:37:49.112Z,76.23
2018-03-22T10:38:49.106Z,76.70
2018-03-22T10:39:49.102Z,76.32
2018-03-22T10:40:49.088Z,76.32
2018-03-22T10:41:49.079Z,76.80
2018-03-22T10:42:49.128Z,76.61
2018-03-22T10:43:49.061Z,76.61
2018-03-22T10:44:49.054Z,76.70
2018-03-22T10:45:49.047Z,76.80
2018-03-22T10:46:49.037Z,76.61
2018-03-22T10:47:49.023Z,76.61
2018-03-22T10:48:49.020Z,76.80
2018-03-22T10:49:49.013Z,76.42
2018-03-22T10:50:49.012Z,76.99
2018-03-22T10:51:48.994Z,76.80
2018-03-22T10:52:48.985Z,76.80
2018-03-22T10:53:48.979Z,76.61
2018-03-22T10:54:48.974Z,76.80
2018-03-22T10:55:48.957Z,76.61
2018-03-22T10:56:48.951Z,76.42
2018-03-22T10:57:48.944Z,76.89
2018-03-22T10:58:48.933Z,76.51
2018-03-22T10:59:48.930Z,76.70
2018-03-22T11:00:48.920Z,76.61
2018-03-22T11:01:48.908Z,76.61
2018-03-22T11:02:48.899Z,76.51
2018-03-22T11:03:48.892Z,76.89
2018-03-22T11:04:48.882Z,76.99
2018-03-22T11:05:48.875Z,76.70
2018-03-22T11:06:48.865Z,76.51
2018-03-22T11:07:48.855Z,76.61
2018-03-22T11:08:48.847Z,76.51
2018-03-22T11:09:48.839Z,76.89
2018-03-22T11:10:48.831Z,76.80
2018-03-22T11:11:48.821Z,76.61
2018-03-22T11:12:48.818Z,77.08
2018-03-22T11:13:48.843Z,76.51
2018-03-22T11:14:48.795Z,76.61
2018-03-22T11:15:48.786Z,76.61
2018-03-22T11:16:48.778Z,76.70
2018-03-22T11:17:48.770Z,76.80
2018-03-22T11:18:48.760Z,76.42
2018-03-22T11:19:48.778Z,76.42
2018-03-22T11:20:48.742Z,76.51
2018-03-22T11:21:48.731Z,76.61
2018-03-22T11:22:48.725Z,76.89
2018-03-22T11:23:48.716Z,76.89
2018-03-22T11:24:48.711Z,76.89
2018-03-22T11:25:48.703Z,76.89
2018-03-22T11:26:48.693Z,77.08
2018-03-22T11:27:48.685Z,76.80
2018-03-22T11:28:48.677Z,76.32
2018-03-22T11:29:48.667Z,77.08
2018-03-22T11:30:48.660Z,77.27
2018-03-22T11:31:48.651Z,76.61
2018-03-22T11:32:48.641Z,76.80
2018-03-22T11:33:48.631Z,76.80
2018-03-22T11:34:48.623Z,76.99
2018-03-22T11:35:48.669Z,77.08
2018-03-22T11:36:48.609Z,77.08
2018-03-22T11:37:48.599Z,76.89
2018-03-22T11:38:48.592Z,76.99
2018-03-22T11:39:48.588Z,76.61
2018-03-22T11:40:48.574Z,76.80
2018-03-22T11:41:48.565Z,76.70
2018-03-22T11:42:48.556Z,76.61
2018-03-22T11:43:48.546Z,76.42
2018-03-22T11:44:48.536Z,77.08
2018-03-22T11:45:48.533Z,76.61
2018-03-22T11:46:48.520Z,76.80
2018-03-22T11:47:48.511Z,76.51
2018-03-22T11:48:48.502Z,76.80
2018-03-22T11:49:48.495Z,76.80
2018-03-22T11:50:48.528Z,76.17
2018-03-22T11:51:48.515Z,76.17
2018-03-22T11:52:48.512Z,76.55
2018-03-22T11:53:48.537Z,76.17
2018-03-22T11:54:48.474Z,76.36
2018-03-22T11:55:48.464Z,76.17
2018-03-22T11:56:48.455Z,76.17
2018-03-22T11:57:48.429Z,76.17
2018-03-22T11:58:48.419Z,76.08
2018-03-22T11:59:48.410Z,76.08
2018-03-22T12:00:48.417Z,76.08
2018-03-22T12:01:48.395Z,76.65
2018-03-22T12:02:48.383Z,76.08
2018-03-22T12:03:48.377Z,76.65
2018-03-22T12:04:48.385Z,75.98
2018-03-22T12:05:48.361Z,76.08
2018-03-22T12:06:48.358Z,76.17
2018-03-22T12:07:48.343Z,75.98
2018-03-22T12:08:48.335Z,76.36
2018-03-22T12:09:48.328Z,76.27
2018-03-22T12:10:48.376Z,76.27
2018-03-22T12:11:48.348Z,76.36
2018-03-22T12:12:48.301Z,76.27
2018-03-22T12:13:48.300Z,75.98
2018-03-22T12:14:48.287Z,76.36
2018-03-22T12:15:48.278Z,76.08
2018-03-22T12:16:48.322Z,76.27
2018-03-22T12:17:48.261Z,76.27
2018-03-22T12:18:48.253Z,76.27
2018-03-22T12:19:48.243Z,75.98
2018-03-22T12:20:48.243Z,76.27
2018-03-22T12:21:48.240Z,76.36
2018-03-22T12:22:48.220Z,76.27
2018-03-22T12:23:48.210Z,76.08
2018-03-22T12:24:48.209Z,76.08
2018-03-22T12:25:48.195Z,75.98
2018-03-22T12:26:48.189Z,76.46
2018-03-22T12:27:48.175Z,76.27
2018-03-22T12:28:48.170Z,76.55
2018-03-22T12:29:48.162Z,76.17
2018-03-22T12:30:48.155Z,76.17
2018-03-22T12:31:48.164Z,76.17
2018-03-22T12:32:48.136Z,76.17
2018-03-22T12:33:48.131Z,75.98
2018-03-22T12:34:48.138Z,76.17
2018-03-22T12:35:48.112Z,76.17
2018-03-22T12:36:48.105Z,76.08
2018-03-22T12:37:48.096Z,76.55
2018-03-22T12:38:48.091Z,76.17
2018-03-22T12:39:48.232Z,76.27
2018-03-22T12:40:48.080Z,76.17
2018-03-22T12:41:48.064Z,76.08
2018-03-22T12:42:48.057Z,76.36
2018-03-22T12:43:48.048Z,76.55
2018-03-22T12:44:48.120Z,75.60
2018-03-22T12:45:48.035Z,76.31
2018-03-22T12:46:48.028Z,75.98
2018-03-22T12:47:48.016Z,76.17
2018-03-22T12:48:48.006Z,75.93
2018-03-22T12:49:48.000Z,75.93
2018-03-22T12:50:47.988Z,76.21
2018-03-22T12:51:47.990Z,76.12
2018-03-22T12:52:47.976Z,76.21